createdAt,value
2023-12-30T00:00:55.924Z,8.21
2023-12-30T00:01:58.648Z,8.19
2023-12-30T00:03:00.789Z,8.15
2023-12-30T00:04:03.329Z,8.19
2023-12-30T00:05:05.313Z,8.19
2023-12-30T00:06:07.617Z,8.21
2023-12-30T00:07:09.481Z,8.10
2023-12-30T00:08:11.409Z,8.11
2023-12-30T00:09:13.669Z,8.18
2023-12-30T00:10:15.618Z,8.15
2023-12-30T00:11:18.282Z,8.18
2023-12-30T00:12:20.069Z,8.12
2023-12-30T00:13:22.056Z,8.11
2023-12-30T00:14:24.420Z,8.02
2023-12-30T00:15:26.477Z,8.02
2023-12-30T00:16:30.318Z,8.08
2023-12-30T00:17:32.300Z,8.07
2023-12-30T00:18:34.289Z,8.04
2023-12-30T00:19:36.400Z,8.07
2023-12-30T00:20:38.394Z,8.07
2023-12-30T00:21:44.735Z,8.03
2023-12-30T00:22:47.070Z,8.04
2023-12-30T00:23:52.128Z,7.95
2023-12-30T00:24:53.823Z,7.93
2023-12-30T00:25:56.188Z,7.95
2023-12-30T00:26:58.103Z,8.05
2023-12-30T00:28:00.094Z,8.03
2023-12-30T00:29:01.994Z,8.02
2023-12-30T00:30:05.349Z,8.02
2023-12-30T00:31:07.197Z,8.01
2023-12-30T00:32:09.336Z,8.00
2023-12-30T00:33:11.121Z,8.00
2023-12-30T00:34:14.968Z,8.05
2023-12-30T00:35:17.185Z,8.02
2023-12-30T00:36:19.052Z,8.02
2023-12-30T00:37:22.046Z,8.03
2023-12-30T00:38:26.412Z,8.02
2023-12-30T00:39:28.771Z,8.01
2023-12-30T00:40:30.543Z,7.95
2023-12-30T00:41:53.581Z,7.91
2023-12-30T00:42:55.298Z,7.92
2023-12-30T00:43:57.631Z,7.89
2023-12-30T00:45:00.402Z,7.91
2023-12-30T00:46:03.467Z,7.87
2023-12-30T00:47:05.307Z,7.82
2023-12-30T00:48:07.850Z,7.92
2023-12-30T00:49:11.215Z,7.96
2023-12-30T00:50:13.481Z,7.85
2023-12-30T00:51:15.553Z,7.88
2023-12-30T00:52:18.089Z,7.83
2023-12-30T00:53:25.701Z,7.88
2023-12-30T00:54:34.976Z,7.86
2023-12-30T00:55:42.312Z,7.85
2023-12-30T00:56:45.061Z,7.87
2023-12-30T00:57:46.947Z,7.88
2023-12-30T00:58:48.986Z,7.87
2023-12-30T00:59:50.890Z,7.85
2023-12-30T01:00:53.727Z,7.88
2023-12-30T01:01:55.482Z,7.88
2023-12-30T01:02:57.444Z,7.86
2023-12-30T01:03:59.807Z,7.74
2023-12-30T01:05:02.338Z,7.79
2023-12-30T01:06:04.781Z,7.76
2023-12-30T01:07:06.739Z,7.69
2023-12-30T01:08:10.137Z,7.60
2023-12-30T01:09:11.874Z,7.46
2023-12-30T01:10:18.507Z,7.43
2023-12-30T01:11:20.313Z,7.35
2023-12-30T01:12:22.534Z,7.42
2023-12-30T01:13:24.352Z,7.44
2023-12-30T01:14:26.136Z,7.44
2023-12-30T01:15:28.817Z,7.43
2023-12-30T01:16:34.119Z,7.32
2023-12-30T01:17:38.426Z,7.24
2023-12-30T01:18:42.075Z,7.21
2023-12-30T01:19:44.026Z,7.25
2023-12-30T01:20:46.526Z,7.23
2023-12-30T01:21:49.350Z,7.26
2023-12-30T01:22:51.276Z,7.29
2023-12-30T01:23:53.015Z,7.32
2023-12-30T01:24:55.367Z,7.26
2023-12-30T01:25:57.716Z,7.31
2023-12-30T01:26:59.516Z,7.28
2023-12-30T01:28:02.803Z,7.29
2023-12-30T01:29:04.664Z,7.36
2023-12-30T01:30:07.956Z,7.32
2023-12-30T01:31:10.334Z,7.32
2023-12-30T01:32:12.163Z,7.32
2023-12-30T01:33:15.039Z,7.27
2023-12-30T01:34:20.486Z,7.23
2023-12-30T01:35:24.007Z,7.31
2023-12-30T01:36:25.664Z,7.32
2023-12-30T01:37:27.844Z,7.31
2023-12-30T01:38:32.788Z,7.19
2023-12-30T01:39:34.942Z,7.10
2023-12-30T01:40:36.773Z,7.16
2023-12-30T01:41:38.634Z,7.23
2023-12-30T01:42:42.174Z,7.16
2023-12-30T01:43:44.596Z,7.19
2023-12-30T01:44:47.019Z,7.25
2023-12-30T01:45:49.363Z,7.31
2023-12-30T01:46:51.191Z,7.35
2023-12-30T01:47:53.343Z,7.37
2023-12-30T01:48:55.320Z,7.31
2023-12-30T01:49:57.080Z,7.34
2023-12-30T01:51:00.097Z,7.37
2023-12-30T01:52:02.974Z,7.33
2023-12-30T01:53:05.573Z,7.34
2023-12-30T01:54:07.903Z,7.39
2023-12-30T01:55:10.494Z,7.38
2023-12-30T01:56:13.409Z,7.39
2023-12-30T01:57:15.257Z,7.39
2023-12-30T01:58:18.313Z,7.38
2023-12-30T01:59:21.895Z,7.40
2023-12-30T02:00:28.120Z,7.49
2023-12-30T02:01:31.050Z,7.49
2023-12-30T02:02:33.641Z,7.35
2023-12-30T02:03:35.873Z,7.46
2023-12-30T02:04:39.338Z,7.41
2023-12-30T02:05:43.353Z,7.42
2023-12-30T02:06:45.239Z,7.47
2023-12-30T02:07:48.291Z,7.47
2023-12-30T02:08:50.581Z,7.48
2023-12-30T02:09:53.094Z,7.47
2023-12-30T02:10:55.082Z,7.50
2023-12-30T02:11:58.345Z,7.49
2023-12-30T02:13:00.493Z,7.54
2023-12-30T02:14:03.099Z,7.53
2023-12-30T02:15:14.652Z,7.46
2023-12-30T02:16:16.877Z,7.50
2023-12-30T02:17:22.641Z,7.43
2023-12-30T02:18:24.449Z,7.43
2023-12-30T02:19:26.568Z,7.45
2023-12-30T02:20:28.636Z,7.49
2023-12-30T02:21:30.514Z,7.40
2023-12-30T02:22:34.994Z,7.43
2023-12-30T02:23:39.480Z,7.46
2023-12-30T02:24:42.131Z,7.48
2023-12-30T02:25:45.284Z,7.44
2023-12-30T02:26:48.078Z,7.44
2023-12-30T02:27:49.993Z,7.50
2023-12-30T02:28:51.910Z,7.51
2023-12-30T02:29:53.670Z,7.48
2023-12-30T02:30:55.609Z,7.52
2023-12-30T02:31:57.777Z,7.49
2023-12-30T02:32:59.862Z,7.53
2023-12-30T02:34:01.872Z,7.53
2023-12-30T02:35:04.148Z,7.57
2023-12-30T02:36:07.008Z,7.48
2023-12-30T02:37:09.276Z,7.42
2023-12-30T02:38:11.063Z,7.42
2023-12-30T02:39:13.240Z,7.47
2023-12-30T02:40:15.415Z,7.41
2023-12-30T02:41:20.418Z,7.41
2023-12-30T02:42:22.198Z,7.42
2023-12-30T02:43:26.088Z,7.46
2023-12-30T02:44:28.287Z,7.50
2023-12-30T02:45:33.697Z,7.44
2023-12-30T02:46:35.787Z,7.46
2023-12-30T02:47:37.972Z,7.41
2023-12-30T02:48:40.293Z,7.43
2023-12-30T02:49:46.272Z,7.44
2023-12-30T02:50:48.395Z,7.45
2023-12-30T02:51:51.017Z,7.47
2023-12-30T02:52:53.121Z,7.49
2023-12-30T02:53:56.069Z,7.51
2023-12-30T02:54:57.777Z,7.49
2023-12-30T02:55:59.687Z,7.54
2023-12-30T02:57:04.029Z,7.56
2023-12-30T02:58:06.838Z,7.60
2023-12-30T02:59:10.766Z,7.46
2023-12-30T03:00:12.874Z,7.53
2023-12-30T03:01:15.016Z,7.52
2023-12-30T03:02:17.089Z,7.47
2023-12-30T03:03:19.159Z,7.42
2023-12-30T03:04:22.895Z,7.42
2023-12-30T03:05:25.348Z,7.43
2023-12-30T03:06:28.651Z,7.44
2023-12-30T03:07:30.670Z,7.47
2023-12-30T03:08:33.339Z,7.49
2023-12-30T03:09:36.803Z,7.49
2023-12-30T03:10:39.235Z,7.43
2023-12-30T03:11:41.139Z,7.43
2023-12-30T03:12:43.858Z,7.43
2023-12-30T03:13:48.022Z,7.45
2023-12-30T03:14:49.776Z,7.41
2023-12-30T03:15:52.437Z,7.43
2023-12-30T03:16:54.245Z,7.46
2023-12-30T03:17:58.927Z,7.43
2023-12-30T03:19:00.916Z,7.44
2023-12-30T03:20:04.783Z,7.48
2023-12-30T03:21:10.335Z,7.45
2023-12-30T03:22:12.045Z,7.44
2023-12-30T03:23:14.312Z,7.43
2023-12-30T03:24:18.326Z,7.31
2023-12-30T03:25:21.522Z,7.36
2023-12-30T03:26:24.539Z,7.30
2023-12-30T03:27:26.648Z,7.32
2023-12-30T03:28:29.354Z,7.30
2023-12-30T03:29:33.564Z,7.31
2023-12-30T03:30:36.722Z,7.35
2023-12-30T03:31:38.759Z,7.35
2023-12-30T03:32:42.093Z,7.39
2023-12-30T03:33:44.159Z,7.38
2023-12-30T03:34:45.827Z,7.37
2023-12-30T03:35:48.029Z,7.28
2023-12-30T03:36:49.719Z,7.27
2023-12-30T03:37:52.115Z,7.28
2023-12-30T03:38:54.282Z,7.35
2023-12-30T03:39:57.086Z,7.33
2023-12-30T03:40:59.474Z,7.37
2023-12-30T03:42:01.300Z,7.33
2023-12-30T03:43:03.674Z,7.39
2023-12-30T03:44:05.743Z,7.37
2023-12-30T03:45:08.221Z,7.29
2023-12-30T03:46:10.349Z,7.39
2023-12-30T03:47:13.238Z,7.41
2023-12-30T03:48:15.121Z,7.31
2023-12-30T03:49:18.586Z,7.32
2023-12-30T03:50:22.425Z,7.37
2023-12-30T03:51:24.683Z,7.35
2023-12-30T03:52:28.127Z,7.34
2023-12-30T03:53:39.467Z,7.38
2023-12-30T03:54:41.203Z,7.38
2023-12-30T03:55:43.050Z,7.41
2023-12-30T03:56:45.104Z,7.42
2023-12-30T03:57:47.167Z,7.45
2023-12-30T03:58:48.930Z,7.39
2023-12-30T03:59:51.183Z,7.43
2023-12-30T04:00:53.444Z,7.45
2023-12-30T04:01:56.456Z,7.46
2023-12-30T04:02:58.339Z,7.42
2023-12-30T04:04:00.372Z,7.41
2023-12-30T04:05:02.421Z,7.47
2023-12-30T04:06:04.269Z,7.43
2023-12-30T04:07:06.226Z,7.50
2023-12-30T04:08:08.112Z,7.48
2023-12-30T04:09:09.857Z,7.49
2023-12-30T04:10:13.996Z,7.52
2023-12-30T04:11:15.821Z,7.51
2023-12-30T04:12:18.638Z,7.49
2023-12-30T04:13:20.639Z,7.49
2023-12-30T04:14:22.314Z,7.48
2023-12-30T04:15:24.540Z,7.45
2023-12-30T04:16:26.967Z,7.50
2023-12-30T04:17:28.808Z,7.51
2023-12-30T04:18:32.043Z,7.44
2023-12-30T04:19:34.912Z,7.42
2023-12-30T04:20:36.853Z,7.36
2023-12-30T04:21:38.679Z,7.24
2023-12-30T04:22:40.877Z,7.18
2023-12-30T04:23:43.632Z,7.16
2023-12-30T04:24:45.672Z,7.18
2023-12-30T04:25:47.780Z,7.18
2023-12-30T04:26:51.304Z,7.16
2023-12-30T04:27:53.289Z,7.06
2023-12-30T04:28:56.723Z,6.99
2023-12-30T04:29:59.034Z,6.95
2023-12-30T04:31:01.719Z,6.96
2023-12-30T04:32:03.679Z,6.83
2023-12-30T04:33:06.425Z,6.85
2023-12-30T04:34:11.319Z,6.86
2023-12-30T04:35:13.716Z,6.91
2023-12-30T04:36:18.253Z,6.89
2023-12-30T04:37:21.535Z,6.88
2023-12-30T04:38:24.495Z,6.84
2023-12-30T04:39:26.444Z,6.75
2023-12-30T04:40:35.418Z,6.73
2023-12-30T04:41:38.112Z,6.75
2023-12-30T04:42:39.873Z,6.73
2023-12-30T04:43:42.128Z,6.64
2023-12-30T04:44:44.143Z,6.73
2023-12-30T04:45:46.759Z,6.76
2023-12-30T04:46:49.407Z,6.70
2023-12-30T04:47:54.912Z,6.76
2023-12-30T04:48:56.947Z,6.76
2023-12-30T04:49:58.834Z,6.83
2023-12-30T04:51:01.241Z,6.85
2023-12-30T04:52:03.103Z,6.94
2023-12-30T04:53:05.313Z,6.97
2023-12-30T04:54:07.340Z,6.94
2023-12-30T04:55:09.400Z,6.97
2023-12-30T04:56:18.730Z,6.97
2023-12-30T04:57:20.531Z,6.99
2023-12-30T04:58:22.705Z,6.96
2023-12-30T04:59:25.377Z,6.93
2023-12-30T05:00:27.443Z,6.96
2023-12-30T05:01:33.238Z,6.85
2023-12-30T05:02:36.580Z,6.90
2023-12-30T05:03:38.677Z,6.91
2023-12-30T05:04:43.859Z,6.96
2023-12-30T05:05:46.334Z,7.00
2023-12-30T05:06:48.124Z,7.01
2023-12-30T05:07:50.624Z,6.97
2023-12-30T05:08:54.204Z,7.00
2023-12-30T05:09:56.379Z,6.96
2023-12-30T05:10:58.442Z,6.94
2023-12-30T05:12:00.971Z,6.95
2023-12-30T05:13:03.780Z,6.92
2023-12-30T05:14:06.124Z,6.95
2023-12-30T05:15:08.496Z,6.89
2023-12-30T05:16:10.274Z,6.99
2023-12-30T05:17:14.116Z,6.99
2023-12-30T05:18:15.875Z,6.94
2023-12-30T05:19:20.704Z,7.04
2023-12-30T05:20:22.575Z,6.97
2023-12-30T05:21:26.460Z,7.00
2023-12-30T05:22:30.392Z,6.99
2023-12-30T05:23:35.362Z,7.05
2023-12-30T05:24:37.515Z,7.02
2023-12-30T05:25:39.297Z,7.07
2023-12-30T05:26:42.031Z,7.12
2023-12-30T05:27:43.894Z,7.12
2023-12-30T05:28:46.152Z,7.10
2023-12-30T05:29:48.003Z,7.11
2023-12-30T05:30:49.915Z,7.10
2023-12-30T05:31:52.197Z,7.09
2023-12-30T05:32:53.998Z,7.08
2023-12-30T05:33:56.373Z,7.01
2023-12-30T05:34:58.199Z,7.02
2023-12-30T05:35:59.981Z,7.09
2023-12-30T05:37:02.405Z,7.05
2023-12-30T05:38:04.857Z,7.14
2023-12-30T05:39:07.514Z,7.12
2023-12-30T05:40:10.536Z,7.03
2023-12-30T05:41:12.749Z,7.02
2023-12-30T05:42:15.983Z,7.05
2023-12-30T05:43:18.515Z,7.10
2023-12-30T05:44:20.587Z,7.13
2023-12-30T05:45:25.921Z,7.11
2023-12-30T05:46:29.429Z,7.12
2023-12-30T05:47:31.721Z,7.03
2023-12-30T05:48:37.170Z,7.01
2023-12-30T05:49:41.629Z,7.01
2023-12-30T05:50:43.485Z,7.02
2023-12-30T05:51:48.046Z,7.02
2023-12-30T05:52:49.968Z,7.06
2023-12-30T05:53:51.729Z,7.02
2023-12-30T05:54:54.251Z,7.07
2023-12-30T05:55:56.400Z,6.98
2023-12-30T05:56:58.420Z,7.05
2023-12-30T05:58:00.188Z,7.02
2023-12-30T05:59:02.577Z,7.09
2023-12-30T06:00:06.255Z,7.07
2023-12-30T06:01:14.285Z,7.08
2023-12-30T06:02:16.043Z,7.03
2023-12-30T06:03:18.428Z,6.96
2023-12-30T06:04:20.882Z,6.90
2023-12-30T06:05:22.916Z,6.95
2023-12-30T06:06:25.275Z,6.90
2023-12-30T06:07:26.981Z,6.87
2023-12-30T06:08:28.914Z,6.87
2023-12-30T06:09:31.420Z,6.86
2023-12-30T06:10:36.280Z,6.85
2023-12-30T06:11:38.243Z,6.80
2023-12-30T06:12:40.019Z,6.78
2023-12-30T06:13:43.177Z,6.84
2023-12-30T06:14:45.352Z,6.84
2023-12-30T06:15:52.195Z,6.78
2023-12-30T06:16:54.197Z,6.80
2023-12-30T06:17:56.086Z,6.75
2023-12-30T06:18:57.910Z,6.76
2023-12-30T06:20:00.978Z,6.74
2023-12-30T06:21:05.035Z,6.62
2023-12-30T06:22:07.880Z,6.67
2023-12-30T06:23:09.822Z,6.71
2023-12-30T06:24:12.021Z,6.74
2023-12-30T06:25:14.467Z,6.73
2023-12-30T06:26:18.072Z,6.78
2023-12-30T06:27:21.424Z,6.75
2023-12-30T06:28:27.861Z,6.69
2023-12-30T06:29:33.313Z,6.68
2023-12-30T06:30:35.963Z,6.70
2023-12-30T06:31:42.847Z,6.67
2023-12-30T06:32:45.584Z,6.61
2023-12-30T06:33:49.077Z,6.58
2023-12-30T06:34:53.395Z,6.50
2023-12-30T06:35:55.170Z,6.52
2023-12-30T06:36:57.421Z,6.49
2023-12-30T06:37:59.832Z,6.56
2023-12-30T06:39:02.180Z,6.57
2023-12-30T06:40:04.724Z,6.53
2023-12-30T06:41:08.753Z,6.55
2023-12-30T06:42:10.936Z,6.53
2023-12-30T06:43:13.676Z,6.58
2023-12-30T06:44:15.823Z,6.51
2023-12-30T06:45:21.345Z,6.53
2023-12-30T06:46:23.256Z,6.59
2023-12-30T06:47:26.566Z,6.53
2023-12-30T06:48:29.034Z,6.53
2023-12-30T06:49:30.786Z,6.54
2023-12-30T06:50:34.097Z,6.47
2023-12-30T06:51:36.374Z,6.52
2023-12-30T06:52:38.993Z,6.48
2023-12-30T06:53:40.962Z,6.48
2023-12-30T06:54:42.916Z,6.47
2023-12-30T06:55:48.212Z,6.43
2023-12-30T06:56:51.011Z,6.44
2023-12-30T06:57:53.829Z,6.39
2023-12-30T06:58:56.371Z,6.43
2023-12-30T06:59:58.516Z,6.36
2023-12-30T07:01:01.068Z,6.29
2023-12-30T07:02:04.387Z,6.31
2023-12-30T07:03:07.127Z,6.33
2023-12-30T07:04:11.188Z,6.25
2023-12-30T07:05:14.002Z,6.22
2023-12-30T07:06:16.430Z,6.18
2023-12-30T07:07:18.148Z,6.15
2023-12-30T07:08:21.909Z,6.16
2023-12-30T07:09:24.286Z,6.09
2023-12-30T07:10:26.021Z,6.10
2023-12-30T07:11:27.890Z,6.09
2023-12-30T07:12:30.564Z,6.12
2023-12-30T07:13:33.108Z,6.08
2023-12-30T07:14:38.402Z,6.02
2023-12-30T07:15:40.525Z,5.97
2023-12-30T07:16:42.266Z,5.99
2023-12-30T07:17:45.693Z,6.06
2023-12-30T07:18:47.981Z,5.94
2023-12-30T07:19:50.171Z,5.92
2023-12-30T07:20:52.499Z,5.87
2023-12-30T07:21:55.766Z,5.83
2023-12-30T07:22:59.302Z,5.85
2023-12-30T07:24:01.672Z,5.86
2023-12-30T07:25:03.832Z,5.85
2023-12-30T07:26:06.152Z,5.89
2023-12-30T07:27:08.246Z,5.89
2023-12-30T07:28:10.997Z,5.86
2023-12-30T07:29:14.330Z,5.86
2023-12-30T07:30:16.726Z,5.86
2023-12-30T07:31:19.246Z,5.87
2023-12-30T07:32:21.357Z,5.86
2023-12-30T07:33:23.708Z,5.94
2023-12-30T07:34:25.864Z,5.91
2023-12-30T07:35:30.776Z,5.87
2023-12-30T07:36:33.297Z,5.88
2023-12-30T07:37:36.716Z,5.91
2023-12-30T07:38:40.142Z,5.85
2023-12-30T07:39:42.251Z,5.79
2023-12-30T07:40:44.344Z,5.80
2023-12-30T07:41:46.283Z,5.72
2023-12-30T07:42:48.963Z,5.75
2023-12-30T07:43:51.004Z,5.74
2023-12-30T07:44:53.895Z,5.73
2023-12-30T07:45:56.279Z,5.72
2023-12-30T07:46:58.322Z,5.76
2023-12-30T07:48:00.535Z,5.83
2023-12-30T07:49:04.367Z,5.82
2023-12-30T07:50:07.466Z,5.79
2023-12-30T07:51:09.347Z,5.78
2023-12-30T07:52:12.488Z,5.74
2023-12-30T07:53:16.333Z,5.75
2023-12-30T07:54:18.310Z,5.81
2023-12-30T07:55:20.936Z,5.77
2023-12-30T07:56:23.507Z,5.86
2023-12-30T07:57:25.436Z,5.83
2023-12-30T07:58:27.263Z,5.77
2023-12-30T07:59:30.035Z,5.80
2023-12-30T08:00:33.037Z,5.85
2023-12-30T08:01:36.098Z,5.83
2023-12-30T08:02:37.987Z,5.85
2023-12-30T08:03:40.173Z,5.87
2023-12-30T08:04:45.609Z,5.89
2023-12-30T08:05:47.832Z,5.91
2023-12-30T08:06:49.894Z,5.91
2023-12-30T08:07:53.388Z,5.93
2023-12-30T08:08:56.410Z,6.00
2023-12-30T08:09:58.516Z,6.00
2023-12-30T08:11:01.387Z,6.14
2023-12-30T08:12:04.420Z,6.15
2023-12-30T08:13:07.174Z,6.12
2023-12-30T08:14:09.914Z,6.21
2023-12-30T08:15:12.321Z,6.21
2023-12-30T08:16:15.379Z,6.33
2023-12-30T08:17:17.624Z,6.43
2023-12-30T08:18:23.806Z,6.52
2023-12-30T08:19:25.725Z,6.60
2023-12-30T08:20:27.824Z,6.70
2023-12-30T08:21:31.800Z,6.79
2023-12-30T08:22:34.188Z,6.83
2023-12-30T08:23:36.560Z,6.93
2023-12-30T08:24:38.846Z,6.95
2023-12-30T08:25:40.944Z,6.93
2023-12-30T08:26:42.755Z,6.92
2023-12-30T08:27:46.523Z,6.98
2023-12-30T08:28:48.660Z,7.06
2023-12-30T08:29:50.823Z,7.04
2023-12-30T08:30:56.037Z,7.10
2023-12-30T08:31:58.176Z,7.14
2023-12-30T08:33:06.031Z,7.13
2023-12-30T08:34:08.355Z,7.12
2023-12-30T08:35:11.402Z,7.15
2023-12-30T08:36:13.632Z,7.13
2023-12-30T08:37:15.371Z,7.22
2023-12-30T08:38:20.145Z,7.23
2023-12-30T08:39:22.265Z,7.26
2023-12-30T08:40:26.090Z,7.24
2023-12-30T08:41:29.300Z,7.29
2023-12-30T08:42:36.044Z,7.31
2023-12-30T08:43:38.137Z,7.40
2023-12-30T08:44:44.965Z,7.43
2023-12-30T08:45:47.196Z,7.47
2023-12-30T08:46:49.263Z,7.57
2023-12-30T08:47:51.776Z,7.61
2023-12-30T08:48:55.475Z,7.69
2023-12-30T08:49:57.300Z,7.71
2023-12-30T08:50:59.364Z,7.69
2023-12-30T08:52:01.295Z,7.80
2023-12-30T08:53:03.990Z,7.85
2023-12-30T08:54:06.329Z,7.85
2023-12-30T08:55:11.979Z,7.91
2023-12-30T08:56:14.200Z,7.98
2023-12-30T08:57:18.542Z,8.01
2023-12-30T08:58:20.387Z,8.08
2023-12-30T08:59:30.932Z,8.15
2023-12-30T09:00:36.747Z,8.20
2023-12-30T09:01:38.637Z,8.23
2023-12-30T09:02:49.094Z,8.30
2023-12-30T09:03:50.962Z,8.37
2023-12-30T09:04:54.784Z,8.43
2023-12-30T09:05:56.625Z,8.52
2023-12-30T09:06:59.011Z,8.57
2023-12-30T09:08:01.628Z,8.67
2023-12-30T09:09:05.963Z,8.68
2023-12-30T09:10:08.913Z,8.71
2023-12-30T09:11:21.318Z,8.78
2023-12-30T09:12:24.136Z,8.81
2023-12-30T09:13:26.037Z,8.86
2023-12-30T09:14:27.909Z,8.91
2023-12-30T09:15:30.196Z,8.96
2023-12-30T09:16:33.538Z,8.98
2023-12-30T09:17:36.177Z,9.02
2023-12-30T09:18:39.475Z,9.07
2023-12-30T09:19:43.956Z,9.14
2023-12-30T09:20:46.199Z,9.15
2023-12-30T09:21:48.950Z,9.15
2023-12-30T09:22:50.836Z,9.16
2023-12-30T09:23:54.040Z,9.24
2023-12-30T09:24:56.231Z,9.32
2023-12-30T09:25:58.415Z,9.42
2023-12-30T09:27:00.935Z,9.51
2023-12-30T09:28:02.728Z,9.55
2023-12-30T09:29:06.715Z,9.60
2023-12-30T09:30:10.030Z,9.59
2023-12-30T09:31:12.603Z,9.52
2023-12-30T09:32:14.534Z,9.47
2023-12-30T09:33:16.936Z,9.51
2023-12-30T09:34:29.584Z,9.52
2023-12-30T09:35:36.107Z,9.49
2023-12-30T09:36:37.824Z,9.42
2023-12-30T09:37:39.820Z,9.41
2023-12-30T09:38:41.582Z,9.31
2023-12-30T09:39:47.646Z,9.26
2023-12-30T09:40:50.070Z,9.21
2023-12-30T09:41:52.289Z,9.17
2023-12-30T09:42:54.960Z,9.12
2023-12-30T09:44:00.288Z,9.18
2023-12-30T09:45:03.367Z,9.20
2023-12-30T09:46:05.964Z,9.23
2023-12-30T09:47:11.957Z,9.30
2023-12-30T09:48:14.392Z,9.34
2023-12-30T09:49:19.431Z,9.41
2023-12-30T09:50:21.250Z,9.50
2023-12-30T09:51:23.611Z,9.57
2023-12-30T09:52:26.151Z,9.65
2023-12-30T09:53:30.918Z,9.70
2023-12-30T09:54:45.525Z,9.69
2023-12-30T09:55:54.706Z,9.62
2023-12-30T09:57:00.361Z,9.62
2023-12-30T09:58:02.793Z,9.66
2023-12-30T09:59:04.502Z,9.67
2023-12-30T10:00:07.159Z,9.68
2023-12-30T10:01:09.106Z,9.71
2023-12-30T10:02:11.438Z,9.74
2023-12-30T10:03:14.779Z,9.77
2023-12-30T10:04:16.820Z,9.82
2023-12-30T10:05:19.007Z,9.93
2023-12-30T10:06:22.763Z,9.96
2023-12-30T10:07:25.565Z,10.01
2023-12-30T10:08:28.777Z,10.05
2023-12-30T10:09:33.453Z,10.18
2023-12-30T10:10:50.846Z,10.31
2023-12-30T10:11:52.604Z,10.42
2023-12-30T10:12:57.405Z,10.45
2023-12-30T10:13:59.292Z,10.50
2023-12-30T10:15:01.852Z,10.61
2023-12-30T10:16:07.224Z,10.64
2023-12-30T10:17:09.450Z,10.72
2023-12-30T10:18:11.765Z,10.77
2023-12-30T10:19:15.250Z,10.84
2023-12-30T10:20:24.377Z,10.86
2023-12-30T10:21:26.951Z,10.94
2023-12-30T10:22:28.694Z,11.04
2023-12-30T10:23:32.331Z,11.05
2023-12-30T10:24:35.062Z,11.10
2023-12-30T10:25:37.540Z,11.17
2023-12-30T10:26:41.205Z,11.21
2023-12-30T10:27:43.066Z,11.29
2023-12-30T10:28:44.870Z,11.35
2023-12-30T10:29:59.932Z,11.37
2023-12-30T10:31:03.811Z,11.47
2023-12-30T10:32:09.927Z,11.56
2023-12-30T10:33:12.842Z,11.69
2023-12-30T10:34:21.680Z,11.81
2023-12-30T10:35:25.026Z,11.83
2023-12-30T10:36:30.727Z,11.88
2023-12-30T10:37:33.205Z,11.94
2023-12-30T10:38:38.319Z,11.93
2023-12-30T10:39:42.728Z,12.04
2023-12-30T10:40:46.335Z,12.05
2023-12-30T10:41:50.113Z,12.06
2023-12-30T10:42:52.271Z,12.14
2023-12-30T10:43:54.788Z,12.18
2023-12-30T10:44:56.940Z,12.21
2023-12-30T10:46:01.075Z,12.20
2023-12-30T10:47:04.225Z,12.27
2023-12-30T10:48:09.564Z,12.37
2023-12-30T10:49:12.424Z,12.30
2023-12-30T10:50:15.382Z,12.42
2023-12-30T10:51:23.524Z,12.48
2023-12-30T10:52:28.243Z,12.51
2023-12-30T10:53:40.040Z,12.54
2023-12-30T10:54:43.686Z,12.59
2023-12-30T10:55:51.734Z,12.70
2023-12-30T10:56:59.810Z,12.71
2023-12-30T10:58:07.815Z,12.74
2023-12-30T10:59:10.843Z,12.77
2023-12-30T11:00:16.596Z,12.75
2023-12-30T11:01:20.752Z,12.74
2023-12-30T11:02:22.907Z,12.75
2023-12-30T11:03:25.626Z,12.81
2023-12-30T11:04:31.013Z,12.87
2023-12-30T11:05:50.264Z,12.89
2023-12-30T11:06:58.216Z,12.97
2023-12-30T11:08:00.045Z,12.90
2023-12-30T11:09:10.627Z,12.91
2023-12-30T11:10:20.777Z,13.01
2023-12-30T11:11:23.967Z,13.06
2023-12-30T11:12:28.915Z,13.07
2023-12-30T11:13:38.300Z,12.92
2023-12-30T11:14:40.055Z,12.90
2023-12-30T11:15:42.537Z,12.89
2023-12-30T11:16:45.234Z,12.87
2023-12-30T11:17:48.824Z,12.79
2023-12-30T11:18:52.478Z,12.78
2023-12-30T11:19:56.457Z,12.80
2023-12-30T11:20:58.686Z,12.84
2023-12-30T11:22:02.156Z,12.90
2023-12-30T11:23:05.364Z,12.78
2023-12-30T11:24:15.408Z,12.82
2023-12-30T11:25:19.467Z,12.91
2023-12-30T11:26:22.443Z,12.91
2023-12-30T11:27:24.307Z,12.86
2023-12-30T11:28:26.387Z,12.83
2023-12-30T11:29:29.493Z,12.87
2023-12-30T11:30:36.403Z,12.95
2023-12-30T11:31:41.121Z,12.85
2023-12-30T11:32:43.587Z,12.84
2023-12-30T11:33:45.854Z,12.78
2023-12-30T11:34:49.848Z,12.88
2023-12-30T11:35:53.078Z,12.96
2023-12-30T11:36:55.517Z,12.92
2023-12-30T11:37:58.651Z,12.90
2023-12-30T11:39:01.389Z,12.81
2023-12-30T11:40:06.287Z,12.69
2023-12-30T11:41:08.548Z,12.71
2023-12-30T11:42:10.399Z,12.74
2023-12-30T11:43:12.550Z,12.69
2023-12-30T11:44:16.577Z,12.65
2023-12-30T11:45:18.593Z,12.65
2023-12-30T11:46:20.528Z,12.65
2023-12-30T11:47:23.172Z,12.54
2023-12-30T11:48:25.285Z,12.53
2023-12-30T11:49:28.011Z,12.53
2023-12-30T11:50:30.834Z,12.44
2023-12-30T11:51:35.928Z,12.38
2023-12-30T11:52:38.330Z,12.30
2023-12-30T11:53:40.174Z,12.23
2023-12-30T11:54:42.378Z,12.19
2023-12-30T11:55:46.249Z,12.07
2023-12-30T11:56:48.208Z,12.08
2023-12-30T11:57:50.002Z,12.04
2023-12-30T11:58:53.065Z,11.94
2023-12-30T11:59:55.162Z,11.83
2023-12-30T12:00:57.307Z,11.78
2023-12-30T12:02:10.033Z,11.75
2023-12-30T12:03:12.484Z,11.68
2023-12-30T12:04:14.995Z,11.53
2023-12-30T12:05:17.313Z,11.48
2023-12-30T12:06:21.652Z,11.35
2023-12-30T12:07:24.480Z,11.33
2023-12-30T12:08:26.315Z,11.33
2023-12-30T12:09:28.785Z,11.31
2023-12-30T12:10:30.826Z,11.24
2023-12-30T12:11:34.115Z,11.22
2023-12-30T12:12:37.444Z,11.19
2023-12-30T12:13:41.381Z,11.14
2023-12-30T12:14:54.118Z,11.20
2023-12-30T12:15:57.527Z,11.20
2023-12-30T12:17:05.705Z,11.18
2023-12-30T12:18:09.093Z,11.15
2023-12-30T12:19:11.267Z,11.23
2023-12-30T12:20:13.205Z,11.23
2023-12-30T12:21:15.209Z,11.20
2023-12-30T12:22:17.898Z,11.22
2023-12-30T12:23:24.180Z,11.23
2023-12-30T12:24:26.753Z,11.24
2023-12-30T12:25:30.036Z,11.20
2023-12-30T12:26:33.397Z,11.20
2023-12-30T12:27:36.598Z,11.15
2023-12-30T12:28:38.910Z,11.10
2023-12-30T12:29:48.252Z,11.10
2023-12-30T12:30:53.328Z,11.15
2023-12-30T12:31:55.348Z,11.02
2023-12-30T12:32:57.688Z,11.05
2023-12-30T12:34:00.015Z,11.00
2023-12-30T12:35:02.458Z,10.99
2023-12-30T12:36:06.172Z,10.95
2023-12-30T12:37:09.758Z,10.95
2023-12-30T12:38:12.095Z,10.90
2023-12-30T12:39:14.933Z,10.92
2023-12-30T12:40:18.082Z,10.90
2023-12-30T12:41:19.825Z,10.90
2023-12-30T12:42:27.836Z,10.94
2023-12-30T12:43:33.494Z,10.90
2023-12-30T12:44:35.263Z,10.90
2023-12-30T12:45:37.458Z,10.94
2023-12-30T12:46:39.616Z,10.91
2023-12-30T12:47:42.294Z,11.01
2023-12-30T12:48:44.642Z,11.02
2023-12-30T12:49:46.915Z,11.04
2023-12-30T12:50:51.276Z,11.03
2023-12-30T12:51:53.517Z,11.08
2023-12-30T12:52:55.316Z,11.14
2023-12-30T12:53:58.547Z,11.17
2023-12-30T12:55:01.097Z,11.21
2023-12-30T12:56:05.817Z,11.22
2023-12-30T12:57:07.957Z,11.30
2023-12-30T12:58:10.143Z,11.31
2023-12-30T12:59:14.746Z,11.37
2023-12-30T13:00:19.426Z,11.37
2023-12-30T13:01:21.218Z,11.39
2023-12-30T13:02:25.361Z,11.44
2023-12-30T13:03:28.027Z,11.43
2023-12-30T13:04:31.016Z,11.39
2023-12-30T13:05:35.622Z,11.37
2023-12-30T13:06:37.575Z,11.41
2023-12-30T13:07:44.349Z,11.41
2023-12-30T13:08:48.523Z,11.39
2023-12-30T13:10:18.428Z,11.46
2023-12-30T13:11:36.997Z,11.42
2023-12-30T13:12:39.900Z,11.45
2023-12-30T13:13:49.529Z,11.43
2023-12-30T13:14:56.901Z,11.31
2023-12-30T13:16:01.708Z,11.33
2023-12-30T13:17:09.374Z,11.33
2023-12-30T13:18:15.561Z,11.29
2023-12-30T13:19:18.563Z,11.19
2023-12-30T13:20:20.931Z,11.06
2023-12-30T13:21:23.499Z,10.92
2023-12-30T13:22:25.527Z,10.86
2023-12-30T13:23:27.809Z,10.77
2023-12-30T13:24:30.604Z,10.67
2023-12-30T13:25:33.298Z,10.58
2023-12-30T13:26:35.781Z,10.54
2023-12-30T13:27:37.963Z,10.45
2023-12-30T13:28:40.198Z,10.41
2023-12-30T13:29:42.883Z,10.37
2023-12-30T13:30:44.885Z,10.35
2023-12-30T13:31:48.850Z,10.25
2023-12-30T13:32:57.923Z,10.23
2023-12-30T13:34:00.364Z,10.20
2023-12-30T13:35:02.516Z,10.19
2023-12-30T13:36:07.785Z,10.12
2023-12-30T13:37:10.106Z,10.14
2023-12-30T13:38:16.867Z,10.13
2023-12-30T13:39:19.203Z,10.09
2023-12-30T13:40:21.058Z,10.04
2023-12-30T13:41:25.800Z,10.03
2023-12-30T13:42:28.282Z,10.00
2023-12-30T13:43:31.256Z,9.97
2023-12-30T13:44:38.746Z,9.93
2023-12-30T13:45:45.884Z,9.92
2023-12-30T13:46:59.724Z,9.92
2023-12-30T13:48:07.653Z,9.92
2023-12-30T13:49:10.365Z,9.88
2023-12-30T13:50:21.120Z,9.86
2023-12-30T13:51:23.265Z,9.84
2023-12-30T13:52:28.284Z,9.88
2023-12-30T13:53:30.332Z,9.89
2023-12-30T13:54:32.763Z,9.89
2023-12-30T13:55:38.586Z,9.93